Time;durP1;ratioP1;P1;durP2;ratioP2;P2;SDS_P1;SDS_P2;PMS_P1;PMS_P2;Temp;Humidity;BMP_temperature;BMP_pressure;BME280_temperature;BME280_humidity;BME280_pressure;Samples;Min_cycle;Max_cycle;Signal;HPM_P1;HPM_P2
2021/08/14 00:00:18;;;;;;;15.68;6.00;;;;;;;24.35;66.84;99135.50;5032139;28;20023;-51
2021/08/14 00:02:44;;;;;;;14.50;6.95;;;;;;;24.08;67.58;99144.81;5031974;28;20075;-52
2021/08/14 00:05:10;;;;;;;16.58;7.50;;;;;;;23.98;67.96;99131.47;5032033;28;20072;-53
2021/08/14 00:07:36;;;;;;;17.83;8.52;;;;;;;23.92;68.24;99136.88;5031482;28;20025;-52
2021/08/14 00:10:03;;;;;;;15.70;9.05;;;;;;;23.86;68.75;99129.94;5030657;28;20108;-52
2021/08/14 00:12:28;;;;;;;19.13;6.13;;;;;;;23.77;68.58;99133.47;5032022;28;20048;-52
2021/08/14 00:14:54;;;;;;;20.30;9.82;;;;;;;23.62;69.43;99127.06;5031932;28;20495;-51
2021/08/14 00:17:20;;;;;;;14.93;6.80;;;;;;;23.52;69.27;99122.59;5031959;28;20036;-52
2021/08/14 00:19:46;;;;;;;16.25;8.02;;;;;;;23.42;69.72;99122.63;5031793;28;20021;-52
2021/08/14 00:22:11;;;;;;;15.70;7.82;;;;;;;23.44;69.90;99122.34;5031577;28;20052;-52
2021/08/14 00:24:37;;;;;;;16.80;13.90;;;;;;;23.53;69.76;99112.66;5031783;28;20057;-52
2021/08/14 00:27:05;;;;;;;18.70;7.55;;;;;;;23.59;69.44;99114.25;5031695;28;20029;-52
2021/08/14 00:29:31;;;;;;;18.00;8.38;;;;;;;23.60;69.38;99117.72;5030464;28;20029;-52
2021/08/14 00:31:57;;;;;;;16.25;6.90;;;;;;;23.55;69.72;99121.22;5030450;28;20079;-52
2021/08/14 00:34:23;;;;;;;21.42;11.60;;;;;;;23.59;69.53;99127.63;5031738;28;20040;-52
2021/08/14 00:36:48;;;;;;;21.17;17.83;;;;;;;23.70;69.52;99123.84;5031645;28;20071;-52
2021/08/14 00:39:14;;;;;;;15.90;7.00;;;;;;;23.72;69.20;99127.06;5031710;28;20057;-52
2021/08/14 00:41:39;;;;;;;18.58;12.35;;;;;;;23.65;69.39;99125.75;5030292;28;20022;-52
2021/08/14 00:44:06;;;;;;;41.65;37.50;;;;;;;23.60;69.46;99129.22;5031957;28;20026;-52
2021/08/14 00:46:33;;;;;;;16.05;9.35;;;;;;;23.53;69.91;99124.19;5031526;28;20072;-51
2021/08/14 00:49:00;;;;;;;21.30;18.98;;;;;;;23.43;70.19;99134.94;5031576;28;20039;-52
2021/08/14 00:51:26;;;;;;;17.88;9.60;;;;;;;23.33;70.57;99130.41;5031569;28;20064;-52
2021/08/14 00:53:52;;;;;;;15.20;9.57;;;;;;;23.30;70.40;99125.63;5031452;28;20120;-52
2021/08/14 00:56:26;;;;;;;17.65;6.63;;;;;;;23.35;70.41;99121.31;5031494;28;20076;-52
2021/08/14 00:58:53;;;;;;;24.58;21.17;;;;;;;23.39;70.46;99120.50;5031521;28;20032;-52
2021/08/14 01:01:25;;;;;;;23.92;14.55;;;;;;;23.62;69.75;99113.69;5031714;28;20112;-52
2021/08/14 01:03:58;;;;;;;25.13;22.35;;;;;;;23.94;69.27;99112.47;5046747;28;20033;-52
2021/08/14 01:06:25;;;;;;;17.63;5.88;;;;;;;24.44;67.62;99120.44;5031360;28;20113;-52
2021/08/14 01:08:54;;;;;;;16.90;6.15;;;;;;;24.92;66.44;99104.44;5046581;28;20033;-52
2021/08/14 01:11:20;;;;;;;14.88;5.90;;;;;;;25.35;64.85;99104.50;5046613;28;20033;-52
2021/08/14 01:13:46;;;;;;;13.43;5.80;;;;;;;25.54;63.92;99112.63;5046601;28;20083;-52
2021/08/14 01:16:12;;;;;;;22.73;15.23;;;;;;;25.70;63.23;99107.84;5046597;28;20034;-52
2021/08/14 01:18:43;;;;;;;14.80;6.32;;;;;;;25.60;62.82;99111.47;5031314;28;20557;-52
2021/08/14 01:21:10;;;;;;;14.25;5.78;;;;;;;25.15;63.55;99104.72;5035119;28;20033;-52
2021/08/14 01:23:37;;;;;;;14.93;6.28;;;;;;;24.92;64.50;99107.13;5034791;28;20045;-52
2021/08/14 01:26:06;;;;;;;13.65;6.07;;;;;;;24.70;64.71;99108.41;5033675;28;20029;-52
2021/08/14 01:28:33;;;;;;;15.68;6.00;;;;;;;24.35;65.49;99111.38;5034842;28;20036;-52
2021/08/14 01:31:01;;;;;;;15.15;6.50;;;;;;;24.30;66.18;99107.66;5033630;28;20402;-51
2021/08/14 01:33:28;;;;;;;18.88;8.38;;;;;;;24.32;65.79;99112.72;5034842;28;20021;-52
2021/08/14 01:35:54;;;;;;;18.90;6.93;;;;;;;24.17;66.06;99107.50;5050077;28;20454;-52
2021/08/14 01:38:20;;;;;;;13.68;7.20;;;;;;;24.01;66.58;99106.81;5034822;28;20108;-52
2021/08/14 01:40:45;;;;;;;13.68;8.30;;;;;;;23.98;66.83;99100.09;5050029;28;20036;-52
2021/08/14 01:43:11;;;;;;;14.30;7.00;;;;;;;23.99;66.81;99099.03;5034927;28;20025;-53
2021/08/14 01:45:37;;;;;;;13.65;6.47;;;;;;;23.87;66.81;99103.94;5034638;28;20372;-52
2021/08/14 01:48:03;;;;;;;34.35;31.17;;;;;;;23.72;67.35;99104.78;5034535;28;20551;-51
2021/08/14 01:50:28;;;;;;;20.45;6.68;;;;;;;23.82;67.53;99101.28;5034749;28;20024;-51
2021/08/14 01:52:54;;;;;;;10.38;6.30;;;;;;;23.96;66.96;99106.81;5034539;28;20539;-52
2021/08/14 01:55:21;;;;;;;15.10;7.13;;;;;;;23.96;67.31;99102.25;5034499;28;20017;-52
2021/08/14 01:57:46;;;;;;;15.40;10.68;;;;;;;24.06;67.09;99099.50;5034400;28;20076;-52
2021/08/14 02:00:13;;;;;;;21.42;8.18;;;;;;;23.95;66.96;99106.03;5034389;28;20435;-52
2021/08/14 02:02:39;;;;;;;13.10;7.03;;;;;;;23.77;67.47;99109.34;5034417;28;20120;-52
2021/08/14 02:05:05;;;;;;;19.77;6.78;;;;;;;23.60;68.12;99110.47;5032992;28;20117;-52
2021/08/14 02:07:31;;;;;;;16.23;7.00;;;;;;;23.43;68.38;99104.69;5034199;28;20025;-52
2021/08/14 02:09:57;;;;;;;19.42;8.00;;;;;;;23.30;69.52;99109.56;5034201;28;20022;-51
2021/08/14 02:12:23;;;;;;;15.95;6.72;;;;;;;23.16;69.72;99100.50;5034127;28;20095;-52
2021/08/14 02:14:48;;;;;;;13.85;7.05;;;;;;;23.00;70.50;99102.38;5034352;28;20120;-52
2021/08/14 02:17:14;;;;;;;14.98;7.88;;;;;;;22.89;70.81;99104.25;5034087;28;20487;-52
2021/08/14 02:19:40;;;;;;;16.90;6.40;;;;;;;22.79;71.07;99106.97;5049372;28;20026;-52
2021/08/14 02:22:06;;;;;;;20.75;18.02;;;;;;;22.67;71.48;99098.44;5033836;28;20112;-51
2021/08/14 02:24:34;;;;;;;13.68;7.97;;;;;;;22.61;72.16;99099.50;5033985;28;20491;-52
2021/08/14 02:27:00;;;;;;;14.65;6.88;;;;;;;22.56;72.02;99103.00;5048778;28;20551;-52
2021/08/14 02:29:26;;;;;;;18.70;8.10;;;;;;;22.57;72.14;99093.88;5034014;28;20021;-52
2021/08/14 02:31:52;;;;;;;16.15;6.80;;;;;;;22.77;71.37;99105.63;5033237;28;20067;-52
2021/08/14 02:34:17;;;;;;;23.92;12.45;;;;;;;23.00;70.77;99098.88;5049049;28;20083;-53
2021/08/14 02:36:43;;;;;;;20.98;8.55;;;;;;;;;;5032479;28;20108;-52
2021/08/14 02:39:09;;;;;;;18.38;14.38;;;;;;;23.30;69.69;99101.50;5032350;28;20104;-52
2021/08/14 02:41:34;;;;;;;21.00;7.65;;;;;;;23.44;69.37;99103.59;5048812;28;20037;-52
2021/08/14 02:44:00;;;;;;;13.43;6.32;;;;;;;23.57;68.44;99103.00;5048845;28;20021;-52
2021/08/14 02:46:26;;;;;;;17.25;7.32;;;;;;;23.65;68.40;99105.09;5048817;28;20025;-52
2021/08/14 02:48:51;;;;;;;16.23;8.18;;;;;;;23.75;68.00;99103.47;5033304;28;20472;-52
2021/08/14 02:51:17;;;;;;;13.80;5.97;;;;;;;23.79;67.71;99108.00;5015521;28;20091;-52
2021/08/14 02:53:42;;;;;;;14.60;9.07;;;;;;;23.80;67.92;99109.59;5033381;28;20053;-52
2021/08/14 02:56:08;;;;;;;11.25;5.85;;;;;;;23.80;68.05;99106.13;5032013;28;20022;-52
2021/08/14 02:58:34;;;;;;;20.40;7.90;;;;;;;23.99;68.09;99101.72;5048584;28;20029;-52
2021/08/14 03:01:00;;;;;;;40.05;36.38;;;;;;;24.32;66.81;99102.78;5033270;28;20032;-52
2021/08/14 03:03:25;;;;;;;11.77;7.10;;;;;;;24.63;66.15;99107.94;5033147;28;20464;-53
2021/08/14 03:05:51;;;;;;;14.98;6.45;;;;;;;24.84;65.19;99107.75;5048418;28;20021;-52
2021/08/14 03:08:17;;;;;;;19.48;8.43;;;;;;;24.58;64.76;99110.66;5031825;28;20037;-52
2021/08/14 03:10:42;;;;;;;15.77;7.07;;;;;;;24.37;65.85;99110.03;5033004;28;20025;-52
2021/08/14 03:13:11;;;;;;;15.25;7.00;;;;;;;24.08;65.88;99109.97;5031677;28;20099;-52
2021/08/14 03:15:39;;;;;;;20.65;11.27;;;;;;;23.71;67.27;99109.34;5032923;28;20159;-52
2021/08/14 03:18:05;;;;;;;18.27;7.80;;;;;;;23.46;67.82;99109.47;5031951;28;20395;-52
2021/08/14 03:20:32;;;;;;;13.02;6.63;;;;;;;23.17;68.88;99114.69;5032815;28;20025;-52
2021/08/14 03:22:58;;;;;;;17.75;10.07;;;;;;;23.00;69.04;99121.13;5032466;28;20570;-52
2021/08/14 03:25:24;;;;;;;16.08;7.10;;;;;;;22.84;69.95;99122.19;5032725;28;20021;-51
2021/08/14 03:27:50;;;;;;;19.42;10.77;;;;;;;22.69;70.01;99125.72;5047956;28;20402;-52
2021/08/14 03:30:17;;;;;;;21.27;7.18;;;;;;;22.61;70.52;99120.91;5032665;28;20033;-52
2021/08/14 03:32:45;;;;;;;13.82;6.15;;;;;;;22.62;70.65;99115.28;5032925;28;20022;-52
2021/08/14 03:35:12;;;;;;;14.95;9.05;;;;;;;22.71;70.42;99102.16;5032854;28;20041;-52
2021/08/14 03:37:39;;;;;;;10.10;6.35;;;;;;;22.84;70.19;99100.78;5032767;28;20037;-52
2021/08/14 03:40:06;;;;;;;16.60;7.57;;;;;;;22.90;69.82;99097.84;5047780;28;20033;-53
2021/08/14 03:42:32;;;;;;;12.30;6.85;;;;;;;22.93;70.23;99094.63;5031662;28;20112;-52
2021/08/14 03:45:01;;;;;;;19.80;14.23;;;;;;;22.97;69.61;99097.56;5047736;28;20099;-52
2021/08/14 03:47:26;;;;;;;10.73;6.75;;;;;;;22.98;69.37;99098.34;5032247;28;20029;-52
2021/08/14 03:49:52;;;;;;;14.27;6.45;;;;;;;22.97;69.83;99094.09;5032324;28;20028;-52
2021/08/14 03:52:20;;;;;;;16.27;8.05;;;;;;;22.86;69.81;99096.78;5032231;28;20466;-52
2021/08/14 03:54:47;;;;;;;18.70;7.18;;;;;;;22.73;70.32;99094.66;5032214;28;20494;-52
2021/08/14 03:57:12;;;;;;;13.32;6.38;;;;;;;22.66;70.78;99096.84;5032139;28;20029;-52
2021/08/14 03:59:38;;;;;;;10.23;6.25;;;;;;;22.50;71.00;99098.72;5032111;28;20084;-52
2021/08/14 04:02:04;;;;;;;18.90;14.65;;;;;;;22.39;71.61;99092.56;5030888;28;20120;-52
2021/08/14 04:04:29;;;;;;;16.45;7.30;;;;;;;22.29;72.06;99095.22;5047643;28;20116;-52
2021/08/14 04:06:55;;;;;;;16.38;8.15;;;;;;;22.23;72.35;99101.63;5032036;28;20482;-52
2021/08/14 04:09:21;;;;;;;21.65;7.03;;;;;;;22.18;72.27;99099.75;5032311;28;20025;-52
2021/08/14 04:11:46;;;;;;;20.15;7.60;;;;;;;22.19;72.33;99105.88;5030677;28;20064;-52
2021/08/14 04:14:12;;;;;;;14.57;6.80;;;;;;;22.17;72.23;99105.34;5031976;28;20033;-53
2021/08/14 04:16:39;;;;;;;38.08;33.30;;;;;;;22.11;72.55;99102.69;5031833;28;20068;-52
2021/08/14 04:19:05;;;;;;;17.98;7.53;;;;;;;22.00;72.65;99109.06;5031882;28;20033;-52
2021/08/14 04:21:30;;;;;;;15.88;6.88;;;;;;;21.93;73.20;99108.53;5031804;28;20132;-52
2021/08/14 04:23:56;;;;;;;17.77;7.25;;;;;;;21.91;73.35;99118.66;5031669;28;20088;-51
2021/08/14 04:26:22;;;;;;;17.63;7.40;;;;;;;21.95;73.28;99111.72;5031760;28;20018;-52
2021/08/14 04:28:47;;;;;;;19.08;7.07;;;;;;;22.12;72.83;99112.31;5031734;28;20022;-52
2021/08/14 04:31:13;;;;;;;29.17;21.35;;;;;;;22.46;72.24;99108.34;5031738;28;20155;-52
2021/08/14 04:33:38;;;;;;;18.98;8.55;;;;;;;22.79;71.59;99106.97;5047302;28;20462;-52
2021/08/14 04:36:04;;;;;;;12.38;6.35;;;;;;;22.99;70.05;99108.00;5031754;28;20395;-52
2021/08/14 04:38:30;;;;;;;12.93;6.78;;;;;;;22.77;70.38;99111.78;5031732;28;20466;-52
2021/08/14 04:40:55;;;;;;;17.75;7.07;;;;;;;22.47;70.90;99115.28;5031598;28;20018;-52
2021/08/14 04:43:25;;;;;;;16.50;6.97;;;;;;;22.30;71.89;99110.22;5046924;28;20116;-52
2021/08/14 04:45:51;;;;;;;15.95;7.05;;;;;;;22.19;72.11;99111.25;5031636;28;20021;-52
2021/08/14 04:48:16;;;;;;;19.95;7.05;;;;;;;22.14;72.32;99104.81;5031531;28;20440;-52
2021/08/14 04:50:42;;;;;;;18.17;6.63;;;;;;;22.10;72.43;99101.06;5031488;28;20033;-52
2021/08/14 04:53:08;;;;;;;12.45;6.72;;;;;;;22.10;72.65;99103.75;5031598;28;20029;-52
2021/08/14 04:55:33;;;;;;;20.80;8.00;;;;;;;22.17;72.22;99102.69;5034663;28;20147;-52
2021/08/14 04:57:59;;;;;;;18.27;6.30;;;;;;;22.41;71.83;99111.00;5034220;28;20128;-52
2021/08/14 05:00:25;;;;;;;17.67;7.28;;;;;;;22.59;70.82;99107.00;5035518;28;20509;-52
2021/08/14 05:02:50;;;;;;;13.20;5.90;;;;;;;22.65;70.79;99113.94;5035757;28;20423;-52
2021/08/14 05:05:16;;;;;;;20.02;7.00;;;;;;;22.72;70.30;99107.25;5035348;28;20096;-52
2021/08/14 05:07:45;;;;;;;15.52;6.85;;;;;;;22.95;69.58;99113.09;5035298;28;20033;-51
2021/08/14 05:10:13;;;;;;;17.60;6.75;;;;;;;;;;5035318;28;20032;-52
2021/08/14 05:12:38;;;;;;;16.27;6.43;;;;;;;23.48;68.16;99118.84;5033976;28;20491;-51
2021/08/14 05:15:04;;;;;;;24.27;18.55;;;;;;;23.89;67.55;99115.97;5035226;28;20117;-52
2021/08/14 05:17:30;;;;;;;15.98;6.13;;;;;;;24.35;65.87;99108.69;5050442;28;20026;-52
2021/08/14 05:19:56;;;;;;;19.00;8.80;;;;;;;24.58;64.42;99115.25;5033868;28;20132;-52
2021/08/14 05:22:21;;;;;;;12.40;6.47;;;;;;;24.63;64.05;99112.50;5034793;28;20471;-52
2021/08/14 05:24:47;;;;;;;15.35;7.60;;;;;;;24.74;63.77;99116.69;5050392;28;20506;-52
2021/08/14 05:27:13;;;;;;;9.23;6.05;;;;;;;25.01;62.98;99104.59;5033855;28;20112;-52
2021/08/14 05:29:39;;;;;;;23.83;10.00;;;;;;;25.45;62.11;99100.91;5034890;28;20025;-52
2021/08/14 05:32:07;;;;;;;39.70;9.25;;;;;;;26.18;60.16;99099.63;5034840;28;20025;-52
2021/08/14 05:34:32;;;;;;;28.48;14.85;;;;;;;26.75;58.73;99099.50;5035167;28;20453;-52
2021/08/14 05:36:58;;;;;;;29.25;8.57;;;;;;;27.22;57.13;99108.31;5033464;28;20029;-52
2021/08/14 05:39:24;;;;;;;18.50;7.25;;;;;;;27.44;56.56;99107.63;5050097;28;20120;-52
2021/08/14 05:41:52;;;;;;;20.42;6.00;;;;;;;27.82;55.36;99109.25;5033419;28;20468;-52
2021/08/14 05:44:21;;;;;;;17.98;5.90;;;;;;;27.89;54.45;99109.66;5034925;28;20433;-52
2021/08/14 05:46:47;;;;;;;15.60;5.90;;;;;;;27.86;53.94;99112.94;5033266;28;20029;-51
2021/08/14 05:49:14;;;;;;;15.77;6.05;;;;;;;27.88;54.05;99113.44;5049911;28;20540;-52
2021/08/14 05:51:41;;;;;;;16.70;5.90;;;;;;;27.88;53.49;99116.94;5034569;28;20022;-52
2021/08/14 05:54:07;;;;;;;10.95;7.40;;;;;;;28.01;53.41;99118.03;5034476;28;20026;-52
2021/08/14 05:56:33;;;;;;;563.92;491.33;;;;;;;28.17;52.90;99114.94;5034385;28;20022;-52
2021/08/14 05:58:59;;;;;;;169.60;139.63;;;;;;;28.31;52.54;99110.28;5034418;28;20156;-52
2021/08/14 06:01:25;;;;;;;103.88;93.57;;;;;;;28.51;51.91;99108.22;5034573;28;20499;-52
2021/08/14 06:03:50;;;;;;;372.27;302.80;;;;;;;28.80;51.23;99107.75;5034257;28;20454;-52
2021/08/14 06:06:16;;;;;;;59.75;53.90;;;;;;;29.22;50.56;99106.34;5033271;28;20057;-52
2021/08/14 06:08:42;;;;;;;59.53;50.42;;;;;;;29.65;49.89;99108.31;5034205;28;20026;-52
2021/08/14 06:11:07;;;;;;;16.58;8.85;;;;;;;30.29;48.01;99100.69;5034156;28;20100;-52
2021/08/14 06:13:33;;;;;;;26.08;9.52;;;;;;;30.56;47.15;99104.97;5034131;28;20095;-52
2021/08/14 06:15:59;;;;;;;16.42;12.63;;;;;;;30.86;46.74;99095.75;5049417;28;20491;-52
2021/08/14 06:18:25;;;;;;;14.77;6.20;;;;;;;31.09;46.31;99106.41;5033962;28;20040;-52
2021/08/14 06:20:50;;;;;;;19.05;7.50;;;;;;;31.44;45.33;99109.72;5033932;28;20033;-52
2021/08/14 06:23:16;;;;;;;13.98;6.15;;;;;;;31.72;44.86;99100.28;5049016;28;20037;-52
2021/08/14 06:25:42;;;;;;;10.75;5.07;;;;;;;32.08;44.27;99098.91;5033925;28;20391;-53
2021/08/14 06:28:07;;;;;;;15.38;6.35;;;;;;;32.37;43.11;99097.97;5033819;28;20021;-53
2021/08/14 06:30:33;;;;;;;23.17;6.45;;;;;;;32.92;42.46;99088.56;5034079;28;20021;-52
2021/08/14 06:32:59;;;;;;;19.45;6.10;;;;;;;33.80;40.67;99088.13;5034004;28;20068;-52
2021/08/14 06:35:25;;;;;;;16.13;5.45;;;;;;;33.88;39.56;99084.47;5049333;28;20033;-52
2021/08/14 06:37:50;;;;;;;16.92;5.68;;;;;;;33.49;40.12;99095.00;5033943;28;20103;-52
2021/08/14 06:40:16;;;;;;;14.35;5.63;;;;;;;33.29;40.46;99091.28;5033642;28;20025;-52
2021/08/14 06:42:45;;;;;;;14.00;5.72;;;;;;;33.49;40.69;99092.28;5048945;28;20033;-52
2021/08/14 06:45:11;;;;;;;14.55;5.80;;;;;;;33.99;39.19;99090.22;5033604;28;20022;-51
2021/08/14 06:47:38;;;;;;;14.32;4.72;;;;;;;33.94;39.59;99093.19;5048764;28;20032;-52
2021/08/14 06:50:05;;;;;;;14.15;4.97;;;;;;;33.94;39.83;99082.28;5033347;28;20014;-53
2021/08/14 06:52:34;;;;;;;14.20;4.90;;;;;;;34.12;39.23;99086.28;5033741;28;20033;-52
2021/08/14 06:55:01;;;;;;;14.18;5.10;;;;;;;34.30;38.77;99073.16;5033682;28;20418;-52
2021/08/14 06:57:27;;;;;;;16.50;5.18;;;;;;;34.54;38.62;99080.41;5032105;28;20636;-52
2021/08/14 06:59:52;;;;;;;20.83;5.97;;;;;;;34.96;38.11;99087.28;5033341;28;20096;-52
2021/08/14 07:02:18;;;;;;;13.38;5.38;;;;;;;35.72;37.04;99089.78;5033170;28;20025;-50
2021/08/14 07:04:44;;;;;;;18.90;5.43;;;;;;;36.18;35.99;99084.44;5033277;28;20099;-49
2021/08/14 07:07:09;;;;;;;15.38;4.85;;;;;;;36.29;35.54;99096.38;5048458;28;20065;-49
2021/08/14 07:09:38;;;;;;;12.35;4.80;;;;;;;36.57;35.28;99096.06;5033133;28;20017;-49
2021/08/14 07:12:04;;;;;;;14.43;4.53;;;;;;;36.54;35.55;99085.06;5032978;28;20030;-50
2021/08/14 07:14:30;;;;;;;20.70;6.05;;;;;;;37.06;34.69;99091.00;5033036;28;20075;-52
2021/08/14 07:16:56;;;;;;;15.90;5.18;;;;;;;37.66;33.93;99080.13;5032790;28;20434;-52
2021/08/14 07:19:21;;;;;;;16.85;5.32;;;;;;;38.25;32.80;99080.41;5048305;28;20415;-51
2021/08/14 07:21:47;;;;;;;15.07;4.78;;;;;;;38.78;31.89;99081.25;5032826;28;20052;-52
2021/08/14 07:24:13;;;;;;;11.25;4.03;;;;;;;39.35;31.59;99078.91;5032622;28;20148;-53
2021/08/14 07:26:39;;;;;;;11.02;4.90;;;;;;;40.09;30.44;99082.38;5032710;28;20535;-52
2021/08/14 07:29:05;;;;;;;9.88;3.80;;;;;;;40.51;29.48;99078.13;5031322;28;20129;-52
2021/08/14 07:31:31;;;;;;;11.93;4.40;;;;;;;41.25;28.55;99081.22;5032628;28;20028;-52
2021/08/14 07:33:57;;;;;;;9.75;3.75;;;;;;;41.80;27.78;99074.34;5031350;28;20025;-52
2021/08/14 07:36:22;;;;;;;14.80;5.32;;;;;;;42.29;27.30;99073.25;5032577;28;20021;-52
2021/08/14 07:38:48;;;;;;;10.65;4.57;;;;;;;42.96;25.83;99077.84;5032536;28;20116;-53
2021/08/14 07:41:14;;;;;;;13.60;4.47;;;;;;;43.41;25.50;99083.31;5047794;28;20018;-53
2021/08/14 07:43:39;;;;;;;13.05;4.10;;;;;;;43.52;25.28;99072.88;5032722;28;20025;-53
2021/08/14 07:46:05;;;;;;;11.88;3.83;;;;;;;43.67;25.39;99073.53;5032310;28;20037;-52
2021/08/14 07:48:31;;;;;;;13.95;4.80;;;;;;;44.01;25.02;99069.88;5032340;28;20029;-53
2021/08/14 07:50:56;;;;;;;17.83;5.00;;;;;;;44.08;24.54;99059.50;5032236;28;20526;-53
2021/08/14 07:53:22;;;;;;;18.25;5.00;;;;;;;44.16;24.55;99057.41;5032509;28;20064;-52
2021/08/14 07:55:48;;;;;;;16.95;6.65;;;;;;;44.25;24.51;99054.91;5032207;28;20021;-52
2021/08/14 07:58:14;;;;;;;22.02;7.60;;;;;;;44.34;24.42;99050.81;5047500;28;20068;-53
2021/08/14 08:00:40;;;;;;;16.27;6.32;;;;;;;44.64;24.05;99053.47;5032440;28;20431;-53
2021/08/14 08:03:08;;;;;;;21.67;4.85;;;;;;;44.96;23.50;99051.38;5032198;28;20036;-54
2021/08/14 08:05:34;;;;;;;17.15;5.07;;;;;;;45.20;23.27;99052.84;5032247;28;20608;-52
2021/08/14 08:08:04;;;;;;;22.80;6.63;;;;;;;45.18;23.10;99048.94;5032236;28;20052;-53
2021/08/14 08:10:31;;;;;;;12.32;4.25;;;;;;;44.78;23.44;99038.59;5032026;28;20022;-53
2021/08/14 08:12:57;;;;;;;18.00;4.80;;;;;;;44.73;23.77;99035.53;5031995;28;20032;-52
2021/08/14 08:15:24;;;;;;;10.45;4.18;;;;;;;44.59;23.78;99029.03;5032334;28;20022;-52
2021/08/14 08:17:50;;;;;;;15.35;4.50;;;;;;;44.51;23.82;99032.38;5031870;28;20083;-51
2021/08/14 08:20:16;;;;;;;15.32;4.97;;;;;;;43.91;24.62;99030.13;5031839;28;20032;-53
2021/08/14 08:22:43;;;;;;;13.52;5.35;;;;;;;43.70;24.89;99028.44;5031707;28;20049;-53
2021/08/14 08:25:10;;;;;;;22.05;5.35;;;;;;;43.77;24.39;99033.88;5047127;28;20105;-54
2021/08/14 08:27:38;;;;;;;13.00;5.20;;;;;;;44.02;24.70;99038.25;5031727;28;20025;-52
2021/08/14 08:30:06;;;;;;;19.08;6.70;;;;;;;43.91;25.05;99035.66;5031210;28;20044;-52
2021/08/14 08:32:32;;;;;;;14.82;5.40;;;;;;;44.14;24.70;99037.69;5031767;28;20083;-53
2021/08/14 08:34:58;;;;;;;14.15;6.18;;;;;;;44.34;24.56;99034.22;5031775;28;20105;-52
2021/08/14 08:37:23;;;;;;;11.43;4.35;;;;;;;44.65;23.73;99034.88;5031673;28;20026;-53
2021/08/14 08:39:49;;;;;;;16.23;5.40;;;;;;;44.83;23.71;99029.78;5031702;28;20021;-52
2021/08/14 08:42:15;;;;;;;16.92;6.20;;;;;;;44.93;23.75;99028.03;5030342;28;20036;-52
2021/08/14 08:44:41;;;;;;;13.85;5.65;;;;;;;45.30;23.35;99028.94;5031669;28;20103;-53
2021/08/14 08:47:08;;;;;;;16.88;4.68;;;;;;;45.58;22.81;99035.84;5031781;28;20037;-54
2021/08/14 08:49:39;;;;;;;11.73;4.63;;;;;;;45.75;22.66;99028.34;5031655;28;20022;-53
2021/08/14 08:52:07;;;;;;;16.60;5.32;;;;;;;46.03;22.03;99032.47;5031650;28;20053;-53
2021/08/14 08:54:33;;;;;;;13.80;5.10;;;;;;;46.38;22.15;99020.91;5046926;28;20399;-53
2021/08/14 08:56:59;;;;;;;19.92;7.82;;;;;;;46.55;22.01;99016.16;5031528;28;20041;-53
2021/08/14 08:59:24;;;;;;;20.65;5.57;;;;;;;46.73;21.86;99024.78;5031815;28;20080;-52
2021/08/14 09:01:50;;;;;;;16.85;5.80;;;;;;;46.78;21.66;99027.00;5031547;28;20022;-52
2021/08/14 09:04:30;;;;;;;13.23;5.07;;;;;;;46.63;21.70;99023.84;5031751;28;20491;-53
2021/08/14 09:06:58;;;;;;;17.75;5.45;;;;;;;46.83;21.50;99018.19;5046684;28;20033;-53
2021/08/14 09:09:32;;;;;;;13.75;4.57;;;;;;;46.64;21.69;99017.06;5031408;28;20104;-52
2021/08/14 09:12:03;;;;;;;16.52;4.68;;;;;;;46.63;21.94;99017.53;5046672;28;20037;-53
2021/08/14 09:14:49;;;;;;;19.40;6.90;;;;;;;46.84;21.55;99027.28;5031686;28;20033;-52
2021/08/14 09:17:16;;;;;;;17.05;6.25;;;;;;;46.94;20.97;99017.88;5030058;28;20465;-52
2021/08/14 09:19:41;;;;;;;15.30;4.72;;;;;;;46.91;20.91;99013.22;5031407;28;20048;-53
2021/08/14 09:22:26;;;;;;;11.65;4.50;;;;;;;47.00;20.98;99009.78;5046362;28;20068;-52
2021/08/14 09:24:52;;;;;;;13.55;4.40;;;;;;;46.90;20.84;99005.31;5031283;28;20093;-53
2021/08/14 09:27:17;;;;;;;15.73;4.97;;;;;;;46.92;21.21;99011.97;5046419;28;20398;-53
2021/08/14 09:29:46;;;;;;;16.23;7.97;;;;;;;47.14;20.62;99003.78;5031288;28;20033;-53
2021/08/14 09:32:15;;;;;;;30.92;6.63;;;;;;;47.26;20.66;99002.28;5031445;28;20388;-52
2021/08/14 09:34:45;;;;;;;13.43;4.85;;;;;;;47.47;20.23;99000.09;5029498;28;20419;-53
2021/08/14 09:37:14;;;;;;;11.60;4.30;;;;;;;47.21;19.78;99000.84;5031372;28;20552;-52
2021/08/14 09:39:53;;;;;;;20.52;5.82;;;;;;;47.03;20.24;98995.00;5031183;28;20026;-52
2021/08/14 09:42:20;;;;;;;22.17;5.00;;;;;;;46.85;20.12;98995.53;5033875;28;20022;-52
2021/08/14 09:45:05;;;;;;;18.13;5.65;;;;;;;45.72;20.94;98995.94;5034693;28;20029;-53
2021/08/14 09:47:33;;;;;;;18.88;5.75;;;;;;;45.07;22.22;98985.41;5033209;28;20038;-52
2021/08/14 09:49:59;;;;;;;12.10;4.45;;;;;;;45.55;21.81;98983.25;5034520;28;20022;-53
2021/08/14 09:52:26;;;;;;;15.63;4.88;;;;;;;46.27;21.50;98978.78;5034724;28;20033;-52
2021/08/14 09:54:54;;;;;;;16.30;4.90;;;;;;;46.60;21.15;98971.19;5049827;28;20045;-53
2021/08/14 09:57:21;;;;;;;20.13;6.50;;;;;;;46.84;20.69;98974.50;5034459;28;20037;-52
2021/08/14 09:59:51;;;;;;;13.60;5.05;;;;;;;46.69;20.53;98976.88;5034433;28;20068;-52
2021/08/14 10:02:29;;;;;;;13.40;3.95;;;;;;;46.31;21.50;98976.69;5033059;28;20040;-52
2021/08/14 10:04:57;;;;;;;15.68;5.15;;;;;;;46.63;20.97;98976.63;5034314;28;20036;-52
2021/08/14 10:07:23;;;;;;;15.60;4.75;;;;;;;46.82;20.84;98965.81;5032939;28;20052;-53
2021/08/14 10:09:51;;;;;;;17.55;4.88;;;;;;;47.10;20.57;98964.22;5034211;28;20040;-52
2021/08/14 10:12:18;;;;;;;13.68;4.47;;;;;;;47.41;20.40;98961.72;5049500;28;20502;-52
2021/08/14 10:14:47;;;;;;;29.05;6.53;;;;;;;46.98;20.43;98954.63;5034171;28;20092;-52
2021/08/14 10:17:15;;;;;;;13.98;4.75;;;;;;;46.93;20.56;98957.16;5034043;28;20049;-52
2021/08/14 10:19:43;;;;;;;15.07;5.00;;;;;;;46.74;20.59;98953.34;5033971;28;20036;-53
2021/08/14 10:22:10;;;;;;;17.33;5.38;;;;;;;46.42;20.71;98957.78;5033699;28;20021;-53
2021/08/14 10:24:42;;;;;;;14.25;4.55;;;;;;;46.24;21.29;98953.47;5033941;28;20029;-53
2021/08/14 10:27:12;;;;;;;12.50;5.30;;;;;;;46.57;21.05;98945.06;5034028;28;20618;-53
2021/08/14 10:29:49;;;;;;;15.13;5.15;;;;;;;46.57;20.74;98944.31;5033835;28;20465;-52
2021/08/14 10:32:30;;;;;;;11.60;4.55;;;;;;;46.97;20.61;98947.53;5033796;28;20041;-52
2021/08/14 10:35:17;;;;;;;14.40;4.57;;;;;;;46.93;20.93;98944.09;5033747;28;20022;-52
2021/08/14 10:37:45;;;;;;;15.77;5.88;;;;;;;46.91;20.49;98940.16;5049001;28;20395;-52
2021/08/14 10:40:12;;;;;;;13.20;4.45;;;;;;;47.14;20.06;98936.31;5033694;28;20053;-53
2021/08/14 10:42:53;;;;;;;16.55;5.57;;;;;;;47.38;19.91;98934.78;5033653;28;20018;-53
2021/08/14 10:45:34;;;;;;;15.70;4.32;;;;;;;47.59;19.42;98938.13;5033588;28;20033;-53
2021/08/14 10:48:04;;;;;;;11.48;4.72;;;;;;;47.56;19.86;98939.03;5032172;28;20044;-53
2021/08/14 10:50:30;;;;;;;16.45;5.80;;;;;;;47.50;19.68;98936.00;5033472;28;20480;-52
2021/08/14 10:53:11;;;;;;;14.80;4.90;;;;;;;47.36;19.77;98931.69;5048288;28;20032;-52
2021/08/14 10:55:38;;;;;;;14.63;4.68;;;;;;;47.20;20.35;98923.47;5048709;28;20029;-53
2021/08/14 10:58:19;;;;;;;13.45;5.15;;;;;;;47.16;20.22;98923.53;5048665;28;20032;-52
2021/08/14 11:00:45;;;;;;;19.58;5.68;;;;;;;47.37;20.15;98926.88;5033283;28;20526;-52
2021/08/14 11:03:13;;;;;;;14.32;4.45;;;;;;;47.47;20.02;98925.00;5033258;28;20018;-52
2021/08/14 11:05:43;;;;;;;12.15;4.45;;;;;;;47.57;19.83;98916.34;5031912;28;20112;-52
2021/08/14 11:08:26;;;;;;;17.08;4.90;;;;;;;47.44;19.95;98921.13;5033298;28;20036;-53
2021/08/14 11:10:53;;;;;;;14.07;4.60;;;;;;;46.92;21.08;98919.50;5033064;28;20111;-52
2021/08/14 11:13:30;;;;;;;18.00;5.05;;;;;;;46.85;20.78;98919.72;5048393;28;20022;-53
2021/08/14 11:15:57;;;;;;;14.07;5.15;;;;;;;46.86;20.82;98921.28;5048269;28;20034;-52
2021/08/14 11:18:56;;;;;;;13.52;4.50;;;;;;;46.89;20.51;98912.84;5031774;28;20056;-52
2021/08/14 11:22:18;;;;;;;18.98;5.88;;;;;;;47.00;20.50;98913.28;5031582;28;20083;-53
2021/08/14 11:24:46;;;;;;;15.32;4.47;;;;;;;46.98;20.47;98912.19;4971901;28;20070;-53